createdAt,value
2022-11-20T00:00:56.219Z,101200.00
2022-11-20T00:03:23.476Z,101196.47
2022-11-20T00:05:50.017Z,101195.56
2022-11-20T00:08:16.489Z,101184.25
2022-11-20T00:10:42.889Z,101183.31
2022-11-20T00:13:09.386Z,101182.53
2022-11-20T00:15:35.922Z,101189.50
2022-11-20T00:18:02.592Z,101194.63
2022-11-20T00:20:29.015Z,101187.78
2022-11-20T00:22:55.498Z,101192.91
2022-11-20T00:25:21.927Z,101179.13
2022-11-20T00:27:48.436Z,101187.75
2022-11-20T00:30:15.326Z,101192.00
2022-11-20T00:32:41.973Z,101187.69
2022-11-20T00:35:08.500Z,101170.34
2022-11-20T00:37:35.090Z,101165.16
2022-11-20T00:40:01.575Z,101162.63
2022-11-20T00:42:28.070Z,101165.22
2022-11-20T00:44:54.815Z,101151.38
2022-11-20T00:47:21.405Z,101173.88
2022-11-20T00:49:47.818Z,101158.31
2022-11-20T00:52:14.248Z,101153.22
2022-11-20T00:54:40.680Z,101154.06
2022-11-20T00:57:07.134Z,101144.59
2022-11-20T00:59:33.563Z,101143.84
2022-11-20T01:01:59.994Z,101132.66
2022-11-20T01:04:26.433Z,101140.44
2022-11-20T01:06:52.927Z,101143.00
2022-11-20T01:09:19.552Z,101134.41
2022-11-20T01:11:46.262Z,101130.09
2022-11-20T01:14:18.091Z,101138.81
2022-11-20T01:16:49.580Z,101128.41
2022-11-20T01:19:22.244Z,101131.91
2022-11-20T01:21:52.896Z,101122.44
2022-11-20T01:24:21.586Z,101113.88
2022-11-20T01:26:49.893Z,101112.16
2022-11-20T01:29:22.861Z,101096.66
2022-11-20T01:31:50.150Z,101092.34
2022-11-20T01:34:19.392Z,101101.84
2022-11-20T01:36:46.648Z,101093.16
2022-11-20T01:39:14.256Z,101098.44
2022-11-20T01:41:41.033Z,101103.59
2022-11-20T01:44:08.126Z,101086.31
2022-11-20T01:46:39.609Z,101083.78
2022-11-20T01:49:31.572Z,101082.91
2022-11-20T01:51:59.761Z,101081.28
2022-11-20T01:54:40.615Z,101086.44
2022-11-20T01:57:11.491Z,101073.53
2022-11-20T01:59:44.253Z,101062.28
2022-11-20T02:02:10.939Z,101070.94
2022-11-20T02:04:37.554Z,101058.00
2022-11-20T02:07:06.244Z,101064.03
2022-11-20T02:09:32.744Z,101058.88
2022-11-20T02:12:00.151Z,101052.81
2022-11-20T02:14:27.364Z,101051.13
2022-11-20T02:16:55.834Z,101047.78
2022-11-20T02:19:30.811Z,101041.75
2022-11-20T02:22:12.382Z,101038.25
2022-11-20T02:24:38.988Z,101047.78
2022-11-20T02:27:14.105Z,101036.66
2022-11-20T02:29:56.391Z,101038.38
2022-11-20T02:32:24.386Z,101031.50
2022-11-20T02:34:50.984Z,101029.81
2022-11-20T02:37:18.787Z,101014.28
2022-11-20T02:39:48.462Z,101022.13
2022-11-20T02:42:14.910Z,101016.97
2022-11-20T02:44:41.495Z,101009.25
2022-11-20T02:47:08.007Z,101002.34
2022-11-20T02:49:34.578Z,100997.28
2022-11-20T02:52:01.220Z,101002.50
2022-11-20T02:54:27.924Z,100995.63
2022-11-20T02:56:54.489Z,100986.19
2022-11-20T02:59:21.247Z,100981.88
2022-11-20T03:01:47.892Z,100984.53
2022-11-20T03:04:14.370Z,100975.94
2022-11-20T03:06:40.892Z,100957.88
2022-11-20T03:09:07.431Z,100960.47
2022-11-20T03:11:33.844Z,100961.44
2022-11-20T03:14:04.012Z,100964.88
2022-11-20T03:16:32.328Z,100964.94
2022-11-20T03:18:59.043Z,100952.00
2022-11-20T03:21:25.530Z,100948.63
2022-11-20T03:23:53.795Z,100927.97
2022-11-20T03:26:24.409Z,100943.50
2022-11-20T03:28:55.071Z,100935.81
2022-11-20T03:31:27.550Z,100934.97
2022-11-20T03:33:54.436Z,100924.56
2022-11-20T03:36:21.790Z,100918.63
2022-11-20T03:38:49.070Z,100910.00
2022-11-20T03:41:21.081Z,100912.63
2022-11-20T03:43:49.628Z,100918.63
2022-11-20T03:46:16.279Z,100918.69
2022-11-20T03:48:45.373Z,100913.53
2022-11-20T03:51:19.325Z,100916.09
2022-11-20T03:53:47.911Z,100911.88
2022-11-20T03:56:16.343Z,100901.56
2022-11-20T03:58:43.058Z,100898.03
2022-11-20T04:01:12.257Z,100896.41
2022-11-20T04:03:40.082Z,100900.69
2022-11-20T04:06:13.031Z,100904.13
2022-11-20T04:08:40.500Z,100897.22
2022-11-20T04:11:14.116Z,100906.72
2022-11-20T04:13:42.022Z,100904.13
2022-11-20T04:16:10.147Z,100895.50
2022-11-20T04:18:36.935Z,100886.03
2022-11-20T04:21:05.128Z,100892.09
2022-11-20T04:23:31.826Z,100889.50
2022-11-20T04:26:04.129Z,100879.22
2022-11-20T04:28:30.610Z,100868.06
2022-11-20T04:31:10.037Z,100863.72
2022-11-20T04:33:37.983Z,100865.47
2022-11-20T04:36:07.115Z,100858.59
2022-11-20T04:38:34.084Z,100852.56
2022-11-20T04:41:01.648Z,100850.81
2022-11-20T04:43:28.414Z,100834.47
2022-11-20T04:45:56.209Z,100845.63
2022-11-20T04:48:23.284Z,100839.56
2022-11-20T04:50:49.999Z,100836.97
2022-11-20T04:53:16.520Z,100827.44
2022-11-20T04:55:42.939Z,100825.72
2022-11-20T04:58:09.452Z,100833.50
2022-11-20T05:00:36.124Z,100818.84
2022-11-20T05:03:02.604Z,100817.97
2022-11-20T05:05:29.052Z,100818.84
2022-11-20T05:07:59.041Z,100814.53
2022-11-20T05:10:26.740Z,100813.69
2022-11-20T05:12:53.385Z,100796.41
2022-11-20T05:15:20.722Z,100809.34
2022-11-20T05:17:54.038Z,100798.16
2022-11-20T05:20:21.218Z,100799.00
2022-11-20T05:22:47.670Z,100790.41
2022-11-20T05:25:14.225Z,100768.00
2022-11-20T05:27:40.661Z,100765.50
2022-11-20T05:30:08.177Z,100751.72
2022-11-20T05:32:34.624Z,100759.44
2022-11-20T05:35:01.091Z,100762.06
2022-11-20T05:37:27.499Z,100742.25
2022-11-20T05:39:53.995Z,100746.63
2022-11-20T05:42:20.429Z,100744.91
2022-11-20T05:44:47.022Z,100737.19
2022-11-20T05:47:13.457Z,100734.56
2022-11-20T05:49:39.946Z,100732.00
2022-11-20T05:52:06.386Z,100739.72
2022-11-20T05:54:33.108Z,100729.38
2022-11-20T05:56:59.524Z,100727.69
2022-11-20T05:59:25.983Z,100719.97
2022-11-20T06:01:52.512Z,100719.13
2022-11-20T06:04:19.000Z,100723.44
2022-11-20T06:06:45.404Z,100713.97
2022-11-20T06:09:11.895Z,100719.13
2022-11-20T06:11:38.322Z,100713.09
2022-11-20T06:14:05.049Z,100716.56
2022-11-20T06:16:31.507Z,100701.13
2022-11-20T06:18:58.050Z,100699.38
2022-11-20T06:21:25.056Z,100704.59
2022-11-20T06:23:53.054Z,100689.94
2022-11-20T06:26:22.292Z,100705.47
2022-11-20T06:28:49.229Z,100697.72
2022-11-20T06:31:18.022Z,100702.91
2022-11-20T06:33:44.885Z,100688.28
2022-11-20T06:36:13.663Z,100695.22
2022-11-20T06:38:40.817Z,100695.25
2022-11-20T06:41:11.222Z,100679.72
2022-11-20T06:43:37.693Z,100684.94
2022-11-20T06:46:04.737Z,100683.19
2022-11-20T06:48:31.267Z,100690.06
2022-11-20T06:50:58.079Z,100679.78
2022-11-20T06:53:25.199Z,100688.44
2022-11-20T06:55:52.731Z,100687.59
2022-11-20T06:58:19.286Z,100683.28
2022-11-20T07:00:45.879Z,100684.19
2022-11-20T07:03:12.970Z,100679.88
2022-11-20T07:05:39.515Z,100673.03
2022-11-20T07:08:06.063Z,100678.22
2022-11-20T07:10:33.416Z,100645.50
2022-11-20T07:12:59.976Z,100661.91
2022-11-20T07:15:26.932Z,100654.19
2022-11-20T07:17:53.618Z,100655.94
2022-11-20T07:20:20.127Z,100654.22
2022-11-20T07:22:46.645Z,100663.69
2022-11-20T07:25:13.175Z,100656.81
2022-11-20T07:27:39.653Z,100652.56
2022-11-20T07:30:06.809Z,100653.44
2022-11-20T07:32:33.253Z,100649.09
2022-11-20T07:34:59.764Z,100656.88
2022-11-20T07:37:26.173Z,100650.84
2022-11-20T07:39:52.703Z,100658.59
2022-11-20T07:42:19.180Z,100659.47
2022-11-20T07:44:45.677Z,100659.47
2022-11-20T07:47:12.224Z,100656.91
2022-11-20T07:49:38.707Z,100656.09
2022-11-20T07:52:05.570Z,100656.09
2022-11-20T07:54:32.631Z,100661.25
2022-11-20T07:56:59.082Z,100663.00
2022-11-20T07:59:25.616Z,100665.59
2022-11-20T08:01:52.081Z,100664.75
2022-11-20T08:04:18.623Z,100659.59
2022-11-20T08:06:45.154Z,100653.59
2022-11-20T08:09:11.711Z,100668.25
2022-11-20T08:11:38.127Z,100669.13
2022-11-20T08:14:04.584Z,100667.44
2022-11-20T08:16:30.997Z,100667.44
2022-11-20T08:18:57.420Z,100679.53
2022-11-20T08:21:23.956Z,100682.09
2022-11-20T08:23:50.537Z,100688.13
2022-11-20T08:26:16.976Z,100671.78
2022-11-20T08:28:43.682Z,100665.75
2022-11-20T08:31:10.511Z,100678.78
2022-11-20T08:33:37.250Z,100683.91
2022-11-20T08:36:05.328Z,100685.69
2022-11-20T08:38:32.374Z,100690.88
2022-11-20T08:41:04.218Z,100689.16
2022-11-20T08:43:30.846Z,100687.47
2022-11-20T08:45:58.069Z,100684.00
2022-11-20T08:48:24.683Z,100686.66
2022-11-20T08:50:51.124Z,100678.03
2022-11-20T08:53:17.571Z,100688.41
2022-11-20T08:55:44.053Z,100689.28
2022-11-20T08:58:10.575Z,100685.88
2022-11-20T09:00:37.188Z,100690.22
2022-11-20T09:03:03.774Z,100690.25
2022-11-20T09:05:30.485Z,100677.38
2022-11-20T09:07:58.032Z,100675.69
2022-11-20T09:10:25.198Z,100675.75
2022-11-20T09:12:53.129Z,100675.81
2022-11-20T09:15:20.690Z,100667.19
2022-11-20T09:18:00.208Z,100674.13
2022-11-20T09:20:28.169Z,100663.81
2022-11-20T09:22:54.593Z,100661.28
2022-11-20T09:25:21.801Z,100668.22
2022-11-20T09:27:48.668Z,100674.25
2022-11-20T09:30:16.344Z,100674.28
2022-11-20T09:32:43.926Z,100669.13
2022-11-20T09:35:11.203Z,100663.94
2022-11-20T09:37:37.632Z,100665.66
2022-11-20T09:40:04.615Z,100674.28
2022-11-20T09:42:41.180Z,100670.84
2022-11-20T09:45:40.180Z,100676.00
2022-11-20T09:48:25.050Z,100676.88
2022-11-20T09:51:11.851Z,100677.72
2022-11-20T09:53:38.252Z,100675.16
2022-11-20T09:56:04.927Z,100670.81
2022-11-20T09:58:36.307Z,100667.41
2022-11-20T10:01:13.838Z,100681.16
2022-11-20T10:04:01.817Z,100665.63
2022-11-20T10:06:45.245Z,100662.13
2022-11-20T10:09:14.608Z,100671.59
2022-11-20T10:11:53.922Z,100672.44
2022-11-20T10:14:30.379Z,100671.56
2022-11-20T10:17:17.384Z,100665.47
2022-11-20T10:20:28.627Z,100669.69
2022-11-20T10:23:27.753Z,100667.00
2022-11-20T10:25:54.185Z,100665.25
2022-11-20T10:28:54.041Z,100671.25
2022-11-20T10:31:41.176Z,100670.34
2022-11-20T10:34:23.880Z,100677.28
2022-11-20T10:37:01.089Z,100672.09
2022-11-20T10:39:42.095Z,100667.69
2022-11-20T10:42:18.362Z,100658.97
2022-11-20T10:44:56.537Z,100656.22
2022-11-20T10:47:23.495Z,100653.56
2022-11-20T10:49:54.436Z,100645.72
2022-11-20T10:52:39.828Z,100638.75
2022-11-20T10:55:24.294Z,100635.28
2022-11-20T10:58:23.269Z,100641.41
2022-11-20T11:00:49.867Z,100635.41
2022-11-20T11:03:29.854Z,100638.03
2022-11-20T11:06:00.015Z,100632.94
2022-11-20T11:08:33.575Z,100630.41
2022-11-20T11:11:03.805Z,100640.84
2022-11-20T11:13:31.763Z,100641.75
2022-11-20T11:15:58.731Z,100639.16
2022-11-20T11:18:33.666Z,100632.22
2022-11-20T11:21:02.411Z,100627.09
2022-11-20T11:23:42.436Z,100634.88
2022-11-20T11:26:23.690Z,100639.25
2022-11-20T11:29:18.663Z,100634.13
2022-11-20T11:31:45.386Z,100616.03
2022-11-20T11:34:13.913Z,100630.75
2022-11-20T11:36:41.017Z,100636.81
2022-11-20T11:39:14.970Z,100635.97
2022-11-20T11:41:42.126Z,100632.56
2022-11-20T11:44:31.715Z,100633.47
2022-11-20T11:46:59.434Z,100643.81
2022-11-20T11:49:26.479Z,100641.25
2022-11-20T11:52:01.856Z,100640.38
2022-11-20T11:54:37.400Z,100642.97
2022-11-20T11:57:11.807Z,100629.19
2022-11-20T11:59:44.409Z,100630.03
2022-11-20T12:02:30.628Z,100631.75
2022-11-20T12:05:02.944Z,100625.72
2022-11-20T12:07:48.434Z,100627.47
2022-11-20T12:10:37.996Z,100636.13
2022-11-20T12:13:16.381Z,100630.09
2022-11-20T12:15:47.171Z,100628.34
2022-11-20T12:18:22.289Z,100633.53
2022-11-20T12:21:04.194Z,100636.09
2022-11-20T12:24:04.331Z,100624.88
2022-11-20T12:26:49.538Z,100624.81
2022-11-20T12:29:34.458Z,100637.75
2022-11-20T12:32:16.267Z,100637.72
2022-11-20T12:35:11.861Z,100637.69
2022-11-20T12:37:38.354Z,100636.75
2022-11-20T12:40:50.110Z,100633.25
2022-11-20T12:43:25.288Z,100635.81
2022-11-20T12:46:04.328Z,100643.47
2022-11-20T12:48:30.844Z,100629.53
2022-11-20T12:51:24.925Z,100637.22
2022-11-20T12:54:35.160Z,100626.75
2022-11-20T12:57:17.669Z,100616.31
2022-11-20T13:00:08.094Z,100624.91
2022-11-20T13:02:58.074Z,100621.50
2022-11-20T13:05:39.710Z,100627.56
2022-11-20T13:08:12.511Z,100624.09
2022-11-20T13:11:14.746Z,100643.16
2022-11-20T13:13:52.582Z,100638.00
2022-11-20T13:16:42.455Z,100634.53
2022-11-20T13:19:14.684Z,100626.78
2022-11-20T13:21:43.035Z,100640.59
2022-11-20T13:24:30.562Z,100633.72
2022-11-20T13:27:09.369Z,100637.19
2022-11-20T13:29:38.128Z,100636.28
2022-11-20T13:32:16.176Z,100637.13
2022-11-20T13:35:05.492Z,100640.59
2022-11-20T13:37:37.626Z,100656.06
2022-11-20T13:40:10.337Z,100663.81
2022-11-20T13:42:55.035Z,100657.75
2022-11-20T13:45:30.471Z,100657.69
2022-11-20T13:47:58.715Z,100654.16
2022-11-20T13:50:37.742Z,100648.06
2022-11-20T13:53:24.366Z,100638.56
2022-11-20T13:55:59.924Z,100643.75
2022-11-20T13:58:48.446Z,100646.31
2022-11-20T14:01:22.601Z,100647.25
2022-11-20T14:04:06.822Z,100655.09
2022-11-20T14:06:42.359Z,100653.41
2022-11-20T14:09:24.937Z,100655.22
2022-11-20T14:11:51.652Z,100661.31
2022-11-20T14:14:20.726Z,100660.50
2022-11-20T14:16:49.037Z,100667.38
2022-11-20T14:19:21.613Z,100662.19
2022-11-20T14:21:54.779Z,100655.34
2022-11-20T14:24:24.218Z,100661.41
2022-11-20T14:26:52.712Z,100665.78
2022-11-20T14:29:28.192Z,100659.88
2022-11-20T14:31:56.781Z,100665.06
2022-11-20T14:34:29.756Z,100653.94
2022-11-20T14:37:02.938Z,100655.69
2022-11-20T14:39:35.429Z,100654.03
2022-11-20T14:42:02.398Z,100636.00
2022-11-20T14:44:33.481Z,100636.84
2022-11-20T14:47:03.092Z,100647.25
2022-11-20T14:49:32.517Z,100623.16
2022-11-20T14:52:11.624Z,100630.94
2022-11-20T14:54:55.579Z,100623.19
2022-11-20T14:57:31.609Z,100635.28
2022-11-20T15:00:15.218Z,100637.88
2022-11-20T15:02:47.327Z,100625.84
2022-11-20T15:05:15.100Z,100627.56
2022-11-20T15:07:45.397Z,100633.59
2022-11-20T15:10:27.188Z,100631.91
2022-11-20T15:12:59.658Z,100627.59
2022-11-20T15:15:32.189Z,100631.09
2022-11-20T15:17:59.699Z,100631.94
2022-11-20T15:20:29.468Z,100625.06
2022-11-20T15:22:55.979Z,100633.72
2022-11-20T15:25:22.477Z,100627.69
2022-11-20T15:27:54.292Z,100634.59
2022-11-20T15:30:22.358Z,100633.72
2022-11-20T15:32:49.224Z,100632.88
2022-11-20T15:35:16.555Z,100631.19
2022-11-20T15:37:43.985Z,100638.94
2022-11-20T15:40:11.061Z,100651.00
2022-11-20T15:42:37.675Z,100654.47
2022-11-20T15:45:04.771Z,100657.03
2022-11-20T15:47:34.651Z,100659.63
2022-11-20T15:50:01.405Z,100657.03
2022-11-20T15:52:30.557Z,100657.03
2022-11-20T15:55:08.259Z,100654.47
2022-11-20T15:57:36.253Z,100653.59
2022-11-20T16:00:03.799Z,100656.19
2022-11-20T16:02:37.432Z,100645.81
2022-11-20T16:05:04.584Z,100648.41
2022-11-20T16:07:31.153Z,100651.88
2022-11-20T16:09:58.288Z,100651.00
2022-11-20T16:12:24.998Z,100640.66
2022-11-20T16:14:51.631Z,100652.72
2022-11-20T16:17:19.549Z,100653.59
2022-11-20T16:19:46.085Z,100652.72
2022-11-20T16:22:12.638Z,100650.13
2022-11-20T16:24:39.272Z,100644.97
2022-11-20T16:27:05.791Z,100657.91
2022-11-20T16:29:32.451Z,100655.28
2022-11-20T16:31:59.024Z,100666.50
2022-11-20T16:34:25.769Z,100643.22
2022-11-20T16:36:52.439Z,100657.88
2022-11-20T16:39:23.596Z,100659.59
2022-11-20T16:41:50.390Z,100668.22
2022-11-20T16:44:16.898Z,100663.03
2022-11-20T16:46:43.423Z,100674.22
2022-11-20T16:49:14.440Z,100680.28
2022-11-20T16:51:41.246Z,100676.78
2022-11-20T16:54:09.724Z,100672.47
2022-11-20T16:56:37.141Z,100675.91
2022-11-20T16:59:05.078Z,100678.47
2022-11-20T17:01:32.104Z,100689.63
2022-11-20T17:04:09.320Z,100682.69
2022-11-20T17:06:42.594Z,100692.94
2022-11-20T17:09:09.177Z,100686.84
2022-11-20T17:11:36.333Z,100689.44
2022-11-20T17:14:03.810Z,100683.34
2022-11-20T17:16:31.077Z,100676.47
2022-11-20T17:19:02.822Z,100670.41
2022-11-20T17:21:31.781Z,100684.16
2022-11-20T17:24:03.158Z,100674.66
2022-11-20T17:26:29.902Z,100687.63
2022-11-20T17:29:01.780Z,100686.78
2022-11-20T17:31:30.177Z,100697.09
2022-11-20T17:33:56.709Z,100697.94
2022-11-20T17:36:23.276Z,100705.72
2022-11-20T17:38:50.039Z,100704.88
2022-11-20T17:41:18.977Z,100715.16
2022-11-20T17:43:46.130Z,100719.44
2022-11-20T17:46:20.790Z,100709.09
2022-11-20T17:48:50.239Z,100740.06
2022-11-20T17:51:22.222Z,100747.78
2022-11-20T17:53:52.238Z,100735.66
2022-11-20T17:56:19.460Z,100742.50
2022-11-20T17:58:45.959Z,100728.56
2022-11-20T18:01:12.837Z,100729.38
2022-11-20T18:03:39.790Z,100731.06
2022-11-20T18:06:17.757Z,100739.56
2022-11-20T18:08:46.045Z,100744.69
2022-11-20T18:11:20.708Z,100739.50
2022-11-20T18:13:50.126Z,100737.72
2022-11-20T18:16:16.613Z,100745.44
2022-11-20T18:18:43.061Z,100739.31
2022-11-20T18:21:09.522Z,100736.69
2022-11-20T18:23:36.291Z,100735.00
2022-11-20T18:26:02.843Z,100745.38
2022-11-20T18:28:29.347Z,100745.38
2022-11-20T18:30:55.976Z,100745.38
2022-11-20T18:33:28.161Z,100750.53
2022-11-20T18:35:54.969Z,100744.47
2022-11-20T18:38:21.589Z,100754.81
2022-11-20T18:40:48.104Z,100764.28
2022-11-20T18:43:14.833Z,100759.06
2022-11-20T18:45:41.343Z,100776.34
2022-11-20T18:48:07.865Z,100766.00
2022-11-20T18:50:34.574Z,100771.16
2022-11-20T18:53:01.116Z,100777.16
2022-11-20T18:55:27.709Z,100763.34
2022-11-20T18:57:54.396Z,100769.38
2022-11-20T19:00:21.267Z,100765.94
2022-11-20T19:02:48.378Z,100765.00
2022-11-20T19:05:15.177Z,100776.22
2022-11-20T19:07:42.695Z,100781.41
2022-11-20T19:10:10.195Z,100781.34
2022-11-20T19:12:36.759Z,100781.31
2022-11-20T19:15:03.512Z,100782.16
2022-11-20T19:17:30.519Z,100784.69
2022-11-20T19:19:57.932Z,100778.63
2022-11-20T19:22:24.465Z,100769.88
2022-11-20T19:24:51.123Z,100791.41
2022-11-20T19:27:17.884Z,100774.09
2022-11-20T19:29:44.428Z,100768.78
2022-11-20T19:32:11.004Z,100789.41
2022-11-20T19:34:37.776Z,100789.34
2022-11-20T19:37:06.878Z,100802.25
2022-11-20T19:39:33.503Z,100784.91
2022-11-20T19:42:01.176Z,100802.09
2022-11-20T19:44:28.247Z,100792.50
2022-11-20T19:46:56.330Z,100792.34
2022-11-20T19:49:23.357Z,100806.09
2022-11-20T19:51:50.174Z,100819.88
2022-11-20T19:56:59.412Z,100805.06
2022-11-20T20:02:11.560Z,100826.47
2022-11-20T20:04:38.205Z,100833.38
2022-11-20T20:07:05.324Z,100827.25
2022-11-20T20:09:32.129Z,100828.84
2022-11-20T20:12:00.624Z,100805.44
2022-11-20T20:14:28.029Z,100824.44
2022-11-20T20:16:54.599Z,100833.88
2022-11-20T20:19:21.095Z,100815.72
2022-11-20T20:21:47.736Z,100820.88
2022-11-20T20:24:14.228Z,100816.44
2022-11-20T20:26:40.978Z,100836.22
2022-11-20T20:29:07.609Z,100831.84
2022-11-20T20:31:34.796Z,100834.34
2022-11-20T20:34:02.262Z,100831.78
2022-11-20T20:36:28.754Z,100833.38
2022-11-20T20:38:56.752Z,100835.91
2022-11-20T20:41:24.010Z,100821.09
2022-11-20T20:43:51.598Z,100846.06
2022-11-20T20:46:18.156Z,100852.94
2022-11-20T20:48:44.706Z,100841.66
2022-11-20T20:51:11.277Z,100832.91
2022-11-20T20:53:38.903Z,100851.00
2022-11-20T20:56:05.701Z,100844.06
2022-11-20T20:58:32.327Z,100845.69
2022-11-20T21:01:08.059Z,100840.47
2022-11-20T21:03:35.611Z,100819.72
2022-11-20T21:06:03.518Z,100831.78
2022-11-20T21:08:30.528Z,100821.28
2022-11-20T21:11:11.807Z,100833.41
2022-11-20T21:13:39.491Z,100830.75
2022-11-20T21:16:06.943Z,100831.56
2022-11-20T21:18:33.814Z,100835.81
2022-11-20T21:21:03.589Z,100842.59
2022-11-20T21:23:30.484Z,100834.81
2022-11-20T21:25:57.064Z,100828.63
2022-11-20T21:28:26.030Z,100827.75
2022-11-20T21:30:52.568Z,100839.00
2022-11-20T21:33:19.145Z,100843.31
2022-11-20T21:35:45.688Z,100836.34
2022-11-20T21:38:12.257Z,100841.44
2022-11-20T21:40:38.761Z,100840.56
2022-11-20T21:43:05.399Z,100845.66
2022-11-20T21:45:31.909Z,100836.13
2022-11-20T21:47:58.514Z,100843.03
2022-11-20T21:50:25.023Z,100831.03
2022-11-20T21:52:51.585Z,100831.84
2022-11-20T21:55:18.057Z,100830.13
2022-11-20T21:57:44.684Z,100825.75
2022-11-20T22:00:12.145Z,100831.69
2022-11-20T22:02:39.319Z,100838.56
2022-11-20T22:05:07.136Z,100833.28
2022-11-20T22:07:33.783Z,100827.19
2022-11-20T22:10:00.273Z,100839.25
2022-11-20T22:12:26.932Z,100818.63
2022-11-20T22:14:53.542Z,100817.78
2022-11-20T22:17:20.035Z,100811.84
2022-11-20T22:19:46.540Z,100813.56
2022-11-20T22:22:13.084Z,100791.16
2022-11-20T22:24:39.612Z,100809.22
2022-11-20T22:27:06.157Z,100799.66
2022-11-20T22:29:32.688Z,100800.50
2022-11-20T22:31:59.238Z,100798.81
2022-11-20T22:34:25.962Z,100801.38
2022-11-20T22:36:52.716Z,100785.75
2022-11-20T22:39:19.287Z,100800.56
2022-11-20T22:41:48.360Z,100775.50
2022-11-20T22:44:15.261Z,100775.63
2022-11-20T22:46:41.832Z,100781.66
2022-11-20T22:49:08.862Z,100768.69
2022-11-20T22:51:38.472Z,100781.59
2022-11-20T22:54:05.719Z,100785.84
2022-11-20T22:56:33.355Z,100777.97
2022-11-20T22:58:59.860Z,100784.00
2022-11-20T23:01:31.655Z,100783.19
2022-11-20T23:04:00.113Z,100788.31
2022-11-20T23:06:27.462Z,100794.28
2022-11-20T23:08:54.362Z,100780.34
2022-11-20T23:11:23.794Z,100791.72
2022-11-20T23:13:55.630Z,100801.03
2022-11-20T23:16:22.260Z,100797.63
2022-11-20T23:18:52.803Z,100777.09
2022-11-20T23:21:19.894Z,100778.75
2022-11-20T23:23:51.563Z,100781.38
2022-11-20T23:26:19.100Z,100792.50
2022-11-20T23:28:46.044Z,100777.88
2022-11-20T23:31:14.650Z,100771.97
2022-11-20T23:33:43.435Z,100769.41
2022-11-20T23:36:10.994Z,100769.34
2022-11-20T23:38:38.181Z,100766.84
2022-11-20T23:41:04.971Z,100754.78
2022-11-20T23:43:31.830Z,100762.53
2022-11-20T23:46:00.151Z,100756.47
2022-11-20T23:48:29.130Z,100760.69
2022-11-20T23:50:56.292Z,100766.66
2022-11-20T23:53:23.742Z,100751.91
2022-11-20T23:55:55.846Z,100748.56
2022-11-20T23:58:24.810Z,100721.59
